Time;durP1;ratioP1;P1;durP2;ratioP2;P2;SDS_P1;SDS_P2;PMS_P1;PMS_P2;Temp;Humidity;BMP_temperature;BMP_pressure;BME280_temperature;BME280_humidity;BME280_pressure;Samples;Min_cycle;Max_cycle;Signal;HPM_P1;HPM_P2
2022/10/07 00:00:21;;;;;;;25.50;24.50;;;14.80;80.10;;;;;;5048661;28;20032;-71
2022/10/07 00:02:46;;;;;;;25.15;24.15;;;14.80;80.20;;;;;;5014542;28;20039;-72
2022/10/07 00:05:12;;;;;;;27.15;26.15;;;14.70;80.10;;;;;;5031073;28;20542;-72
2022/10/07 00:07:38;;;;;;;26.63;25.63;;;14.80;80.10;;;;;;4998328;28;20025;-72
2022/10/07 00:10:04;;;;;;;25.75;24.75;;;14.70;80.10;;;;;;5030933;28;20044;-71
2022/10/07 00:12:30;;;;;;;28.15;27.05;;;14.70;80.10;;;;;;5048515;28;20021;-71
2022/10/07 00:14:55;;;;;;;26.23;25.23;;;14.60;80.20;;;;;;5030727;28;20028;-71
2022/10/07 00:17:21;;;;;;;25.05;24.05;;;14.60;80.20;;;;;;5030673;28;20033;-72
2022/10/07 00:19:47;;;;;;;25.83;24.83;;;14.60;80.20;;;;;;4997915;28;20059;-73
2022/10/07 00:22:13;;;;;;;26.50;25.50;;;14.60;80.20;;;;;;5030497;28;20505;-72
2022/10/07 00:24:39;;;;;;;24.23;23.30;;;14.60;80.20;;;;;;5030391;28;20037;-72
2022/10/07 00:27:04;;;;;;;24.92;23.92;;;14.60;80.30;;;;;;5048453;28;20025;-71
2022/10/07 00:29:30;;;;;;;23.85;22.95;;;14.60;80.40;;;;;;5030563;28;20029;-71
2022/10/07 00:31:56;;;;;;;25.33;24.33;;;14.60;80.40;;;;;;5048311;28;20100;-71
2022/10/07 00:34:22;;;;;;;25.40;24.40;;;14.70;80.40;;;;;;5030616;28;20033;-71
2022/10/07 00:36:49;;;;;;;24.85;23.85;;;14.70;80.30;;;;;;5048248;28;20032;-71
2022/10/07 00:39:16;;;;;;;24.65;23.65;;;14.70;80.20;;;;;;5030225;28;20053;-71
2022/10/07 00:41:49;;;;;;;25.67;24.67;;;14.70;80.20;;;;;;5030378;28;20036;-71
2022/10/07 00:44:27;;;;;;;25.63;24.63;;;14.70;80.30;;;;;;5029929;28;20060;-71
2022/10/07 00:46:54;;;;;;;25.77;24.77;;;14.70;80.30;;;;;;5048034;28;20028;-72
2022/10/07 00:49:21;;;;;;;28.33;27.23;;;14.70;80.30;;;;;;5014297;28;20063;-72
2022/10/07 00:51:49;;;;;;;26.10;25.10;;;14.70;80.30;;;;;;5013778;28;20098;-71
2022/10/07 00:54:17;;;;;;;25.90;24.90;;;14.80;80.40;;;;;;5030417;28;20048;-72
2022/10/07 00:56:45;;;;;;;25.15;24.15;;;14.80;80.30;;;;;;5030033;28;20132;-71
2022/10/07 00:59:12;;;;;;;26.83;25.83;;;14.80;80.20;;;;;;5047858;28;20048;-71
2022/10/07 01:01:40;;;;;;;24.45;23.50;;;14.80;80.30;;;;;;5030218;28;20407;-72
2022/10/07 01:04:08;;;;;;;24.65;23.65;;;14.80;80.20;;;;;;5030289;28;20021;-71
2022/10/07 01:06:37;;;;;;;25.27;24.27;;;14.70;80.30;;;;;;5030096;28;20039;-71
2022/10/07 01:09:03;;;;;;;24.42;23.48;;;14.70;80.30;;;;;;5030286;28;20104;-72
2022/10/07 01:11:54;;;;;;;25.20;24.20;;;14.80;80.40;;;;;;5029763;28;20059;-72
2022/10/07 01:14:55;;;;;;;23.25;22.35;;;14.80;80.40;;;;;;5047446;28;20327;-71
2022/10/07 01:17:24;;;;;;;24.80;23.80;;;14.80;80.40;;;;;;5029584;28;20024;-72
2022/10/07 01:20:12;;;;;;;24.38;23.42;;;14.90;80.40;;;;;;5029668;28;20021;-71
2022/10/07 01:22:45;;;;;;;23.70;22.80;;;14.90;80.30;;;;;;5047452;28;20037;-72
2022/10/07 01:25:19;;;;;;;23.85;22.95;;;14.90;80.30;;;;;;5047406;28;20025;-72
2022/10/07 01:28:19;;;;;;;23.25;22.35;;;14.90;80.30;;;;;;5029519;28;20054;-72
2022/10/07 01:30:53;;;;;;;24.73;23.73;;;14.90;80.40;;;;;;5047413;28;20028;-72
2022/10/07 01:33:25;;;;;;;24.98;23.98;;;14.90;80.40;;;;;;5047229;28;20100;-72
2022/10/07 01:35:51;;;;;;;24.05;23.15;;;15.00;80.40;;;;;;5047420;28;20055;-72
2022/10/07 01:38:21;;;;;;;25.35;24.35;;;15.00;80.40;;;;;;5047069;28;20072;-72
2022/10/07 01:40:58;;;;;;;24.90;23.90;;;15.00;80.40;;;;;;5029415;28;20040;-71
2022/10/07 01:43:25;;;;;;;24.27;23.35;;;15.00;80.30;;;;;;5047113;28;20049;-71
2022/10/07 01:45:53;;;;;;;25.70;24.70;;;15.00;80.30;;;;;;5047152;28;20083;-71
2022/10/07 01:48:19;;;;;;;26.13;25.13;;;15.00;80.30;;;;;;5047319;28;20028;-71
2022/10/07 01:50:47;;;;;;;26.70;25.70;;;15.00;80.40;;;;;;5047499;28;20398;-71
2022/10/07 01:53:48;;;;;;;27.83;26.73;;;15.00;80.30;;;;;;5029197;28;20510;-71
2022/10/07 01:56:17;;;;;;;26.75;25.75;;;14.90;80.30;;;;;;5029344;28;20033;-70
2022/10/07 01:59:13;;;;;;;26.38;25.38;;;14.80;80.30;;;;;;5033618;28;20261;-70
2022/10/07 02:01:58;;;;;;;28.45;27.35;;;14.70;80.40;;;;;;5033164;28;20091;-71
2022/10/07 02:04:30;;;;;;;29.55;28.45;;;14.70;80.50;;;;;;5050999;28;20029;-71
2022/10/07 02:07:32;;;;;;;29.75;28.65;;;14.70;80.50;;;;;;5051441;28;20023;-71
2022/10/07 02:10:10;;;;;;;28.85;27.75;;;14.70;80.50;;;;;;5051080;28;20022;-72
2022/10/07 02:13:07;;;;;;;29.75;28.65;;;14.70;80.50;;;;;;5032965;28;20059;-72
2022/10/07 02:15:41;;;;;;;29.48;28.38;;;14.70;80.60;;;;;;5033117;28;20076;-71
2022/10/07 02:18:12;;;;;;;30.95;29.75;;;14.70;80.50;;;;;;5032957;28;20359;-71
2022/10/07 02:20:40;;;;;;;30.13;29.02;;;14.70;80.40;;;;;;5032833;28;20064;-71
2022/10/07 02:23:09;;;;;;;31.38;30.17;;;14.70;80.40;;;;;;5016510;28;20032;-71
2022/10/07 02:25:44;;;;;;;31.70;30.50;;;14.70;80.40;;;;;;5051227;28;20514;-72
2022/10/07 02:28:11;;;;;;;32.05;30.85;;;14.60;80.40;;;;;;5033093;28;20036;-72
2022/10/07 02:30:39;;;;;;;31.05;29.85;;;14.60;80.40;;;;;;5050773;28;20027;-71
2022/10/07 02:33:07;;;;;;;31.55;30.35;;;14.60;80.50;;;;;;5050617;28;20037;-71
2022/10/07 02:35:53;;;;;;;30.85;29.65;;;14.60;80.50;;;;;;5050530;28;20040;-71
2022/10/07 02:38:20;;;;;;;32.90;31.70;;;14.70;80.60;;;;;;5050478;28;20075;-72
2022/10/07 02:40:51;;;;;;;31.45;30.25;;;14.60;80.50;;;;;;5050553;28;20044;-71
2022/10/07 02:43:27;;;;;;;34.25;32.95;;;14.60;80.50;;;;;;5050455;28;20442;-71
2022/10/07 02:46:30;;;;;;;35.03;33.72;;;14.60;80.50;;;;;;5050900;28;20079;-71
2022/10/07 02:48:59;;;;;;;32.30;31.10;;;14.60;80.50;;;;;;5050350;28;20100;-71
2022/10/07 02:51:40;;;;;;;34.47;33.17;;;14.60;80.50;;;;;;5032314;28;20514;-71
2022/10/07 02:54:06;;;;;;;34.38;33.08;;;14.60;80.50;;;;;;5032060;28;20029;-73
2022/10/07 02:56:36;;;;;;;34.30;33.00;;;14.60;80.60;;;;;;5015808;28;20040;-73
2022/10/07 02:59:05;;;;;;;36.38;35.03;;;14.70;80.70;;;;;;5032307;28;20033;-71
2022/10/07 03:01:37;;;;;;;35.75;34.45;;;14.70;80.60;;;;;;5032263;28;20024;-71
2022/10/07 03:04:04;;;;;;;34.47;33.17;;;14.80;80.60;;;;;;5032118;28;20120;-71
2022/10/07 03:06:30;;;;;;;36.72;35.33;;;14.80;80.60;;;;;;5049839;28;20029;-71
2022/10/07 03:08:56;;;;;;;37.00;35.60;;;14.80;80.60;;;;;;5032137;28;20108;-72
2022/10/07 03:11:23;;;;;;;34.92;33.63;;;14.90;80.50;;;;;;5031971;28;20029;-71
2022/10/07 03:13:49;;;;;;;36.88;35.47;;;14.90;80.50;;;;;;5031770;28;20332;-71
2022/10/07 03:16:15;;;;;;;37.55;36.15;;;15.00;80.50;;;;;;5031955;28;20118;-73
2022/10/07 03:18:40;;;;;;;36.90;35.50;;;15.00;80.50;;;;;;5049741;28;20032;-71
2022/10/07 03:21:07;;;;;;;35.50;34.20;;;15.00;80.50;;;;;;5049794;28;20497;-71
2022/10/07 03:23:33;;;;;;;37.13;35.72;;;15.00;80.50;;;;;;5049473;28;20037;-71
2022/10/07 03:25:59;;;;;;;38.03;36.63;;;15.00;80.60;;;;;;5049638;28;20036;-70
2022/10/07 03:28:27;;;;;;;;;;;15.00;80.50;;;;;;5050050;28;20021;-71
2022/10/07 03:30:53;;;;;;;37.58;36.17;;;14.90;80.40;;;;;;5031842;28;19912;-72
2022/10/07 03:33:20;;;;;;;;;;;14.90;80.50;;;;;;5050032;28;20171;-71
2022/10/07 03:35:45;;;;;;;37.70;36.30;;;15.00;80.60;;;;;;5049516;28;19912;-71
2022/10/07 03:38:11;;;;;;;36.40;35.00;;;15.00;80.60;;;;;;5049218;28;20037;-71
2022/10/07 03:40:37;;;;;;;36.80;35.40;;;15.00;80.50;;;;;;5031484;28;20134;-71
2022/10/07 03:43:04;;;;;;;35.45;34.15;;;15.00;80.50;;;;;;5031485;28;20062;-71
2022/10/07 03:45:30;;;;;;;35.45;34.15;;;15.00;80.50;;;;;;5031305;28;20036;-71
2022/10/07 03:47:57;;;;;;;37.10;35.70;;;15.10;80.60;;;;;;5014860;28;20025;-71
2022/10/07 03:50:24;;;;;;;42.58;40.97;;;15.10;80.50;;;;;;5049219;28;20025;-71
2022/10/07 03:52:51;;;;;;;39.83;38.33;;;15.10;80.50;;;;;;5031066;28;20029;-71
2022/10/07 03:55:16;;;;;;;44.85;43.22;;;15.10;80.40;;;;;;5049249;28;20061;-71
2022/10/07 03:57:52;;;;;;;46.78;45.08;;;15.10;80.40;;;;;;5049056;28;20429;-71
2022/10/07 04:00:23;;;;;;;47.03;45.33;;;15.10;80.40;;;;;;5032612;28;20036;-71
2022/10/07 04:02:50;;;;;;;54.30;52.33;;;15.00;80.40;;;;;;5030962;28;20037;-71
2022/10/07 04:05:17;;;;;;;56.60;54.53;;;15.00;80.40;;;;;;5030839;28;20048;-71
2022/10/07 04:07:48;;;;;;;59.70;57.53;;;14.90;80.30;;;;;;5030884;28;20459;-71
2022/10/07 04:10:16;;;;;;;59.70;57.53;;;14.90;80.30;;;;;;5048797;28;20033;-72
2022/10/07 04:12:43;;;;;;;62.33;60.10;;;14.80;80.30;;;;;;5048727;28;20017;-71
2022/10/07 04:15:14;;;;;;;59.80;57.60;;;14.80;80.40;;;;;;5048973;28;20051;-72
2022/10/07 04:17:40;;;;;;;56.55;54.53;;;14.80;80.50;;;;;;5030692;28;20029;-71
2022/10/07 04:20:07;;;;;;;58.90;56.80;;;14.80;80.50;;;;;;5030279;28;20537;-72
2022/10/07 04:22:33;;;;;;;56.25;54.25;;;14.80;80.50;;;;;;5030558;28;20044;-71
2022/10/07 04:27:42;;;;;;;62.60;60.33;;;14.80;80.40;;;;;;5048522;28;20123;-72
2022/10/07 04:30:09;;;;;;;59.45;57.30;;;14.80;80.40;;;;;;5048427;28;20095;-72
2022/10/07 04:32:35;;;;;;;;;;;14.80;80.30;;;;;;5031049;28;20033;-71
2022/10/07 04:35:02;;;;;;;50.88;49.03;;;14.80;80.40;;;;;;5030450;28;19913;-71
2022/10/07 04:37:28;;;;;;;46.92;45.22;;;14.80;80.40;;;;;;5048270;28;20036;-71
2022/10/07 04:39:54;;;;;;;41.78;40.28;;;14.80;80.60;;;;;;5026857;28;20140;-71
2022/10/07 04:45:06;;;;;;;41.17;39.67;;;14.90;80.70;;;;;;5027330;28;20567;-71
2022/10/07 04:47:34;;;;;;;41.30;39.80;;;15.00;80.70;;;;;;5028281;28;20036;-71
2022/10/07 04:50:01;;;;;;;44.65;43.05;;;15.00;80.70;;;;;;5026819;28;20446;-72
2022/10/07 04:52:26;;;;;;;47.10;45.40;;;15.00;80.70;;;;;;5026625;28;20391;-71
2022/10/07 04:54:53;;;;;;;50.47;48.67;;;15.10;80.60;;;;;;4994259;28;20045;-72
2022/10/07 04:57:18;;;;;;;;;;;15.10;80.50;;;;;;5027188;28;20377;-71
2022/10/07 04:59:44;;;;;;;45.42;43.72;;;15.00;80.40;;;;;;5027938;28;19970;-71
2022/10/07 05:02:10;;;;;;;44.35;42.75;;;15.00;80.40;;;;;;5010136;28;20467;-71
2022/10/07 05:04:35;;;;;;;41.47;39.97;;;15.00;80.50;;;;;;5027855;28;20041;-71
2022/10/07 05:07:01;;;;;;;40.72;39.22;;;15.00;80.60;;;;;;5028065;28;20026;-72
2022/10/07 05:09:27;;;;;;;39.50;38.00;;;15.10;80.70;;;;;;5010045;28;20033;-72
2022/10/07 05:11:56;;;;;;;37.03;35.63;;;15.10;80.70;;;;;;5027788;28;20024;-71
2022/10/07 05:14:22;;;;;;;31.02;29.83;;;15.10;80.60;;;;;;5026734;28;20094;-72
2022/10/07 05:16:48;;;;;;;;;;;15.10;80.60;;;;;;5028201;28;20052;-72
2022/10/07 05:19:14;;;;;;;30.85;29.65;;;15.20;80.70;;;;;;5027541;28;19913;-71
2022/10/07 05:21:39;;;;;;;38.50;37.10;;;15.20;80.60;;;;;;5026257;28;20504;-71
2022/10/07 05:24:05;;;;;;;40.50;39.00;;;15.20;80.60;;;;;;4993498;28;20044;-72
2022/10/07 05:26:31;;;;;;;40.50;39.00;;;15.20;80.60;;;;;;4993533;28;20540;-72
2022/10/07 05:28:56;;;;;;;44.72;43.13;;;15.20;80.60;;;;;;5027434;28;20116;-72
2022/10/07 05:31:24;;;;;;;44.80;43.20;;;15.10;80.40;;;;;;5026544;28;20048;-72
2022/10/07 05:33:50;;;;;;;46.42;44.72;;;15.10;80.40;;;;;;5027089;28;20043;-72
2022/10/07 05:36:18;;;;;;;41.65;40.15;;;15.10;80.50;;;;;;5026012;28;20031;-72
2022/10/07 05:38:43;;;;;;;40.67;39.17;;;15.10;80.60;;;;;;5025860;28;20208;-73
2022/10/07 05:41:11;;;;;;;42.30;40.72;;;15.10;80.60;;;;;;5026004;28;20040;-72
2022/10/07 05:43:40;;;;;;;41.20;39.70;;;15.10;80.60;;;;;;5027254;28;20033;-71
2022/10/07 05:46:11;;;;;;;42.60;41.00;;;15.10;80.70;;;;;;5027084;28;20025;-71
2022/10/07 05:48:37;;;;;;;42.25;40.70;;;15.10;80.60;;;;;;5025825;28;20029;-71
2022/10/07 05:51:03;;;;;;;;;;;15.10;80.70;;;;;;5026330;28;20046;-73
2022/10/07 05:53:29;;;;;;;43.90;42.30;;;15.10;80.70;;;;;;5027033;28;19917;-70
2022/10/07 05:55:55;;;;;;;;;;;15.10;80.50;;;;;;5027456;28;20083;-73
2022/10/07 05:58:21;;;;;;;44.92;43.28;;;15.10;80.50;;;;;;5026691;28;19913;-72
2022/10/07 06:00:55;;;;;;;;;;;15.10;80.50;;;;;;5027848;28;20391;-73
2022/10/07 06:03:21;;;;;;;48.03;46.28;;;15.10;80.60;;;;;;5026927;28;19959;-72
2022/10/07 06:05:47;;;;;;;;;;;15.00;80.50;;;;;;5027382;28;20025;-72
2022/10/07 06:08:13;;;;;;;51.20;49.30;;;15.00;80.60;;;;;;5026215;28;20322;-73
2022/10/07 06:13:23;;;;;;;61.03;58.83;;;14.90;80.30;;;;;;5027238;28;20085;-73
2022/10/07 06:15:49;;;;;;;67.97;65.53;;;14.80;80.30;;;;;;5025619;28;20061;-74
2022/10/07 06:18:15;;;;;;;92.57;89.20;;;14.70;80.40;;;;;;5025792;28;20091;-72
2022/10/07 06:20:41;;;;;;;91.68;88.38;;;14.70;80.40;;;;;;5026866;28;20068;-72
2022/10/07 06:23:07;;;;;;;85.47;82.43;;;14.60;80.30;;;;;;5025319;28;20065;-72
2022/10/07 06:25:33;;;;;;;77.95;75.15;;;14.40;80.20;;;;;;5009115;28;20064;-72
2022/10/07 06:28:00;;;;;;;85.07;82.00;;;14.30;80.10;;;;;;5009014;28;20073;-72
2022/10/07 06:30:28;;;;;;;89.72;86.53;;;14.10;80.10;;;;;;5027291;28;20126;-72
2022/10/07 06:32:53;;;;;;;87.20;84.05;;;14.00;80.30;;;;;;5025317;28;20026;-71
2022/10/07 06:35:19;;;;;;;84.72;81.72;;;13.90;80.20;;;;;;5025247;28;20479;-70
2022/10/07 06:37:45;;;;;;;83.53;80.53;;;13.80;80.30;;;;;;5008687;28;20513;-70
2022/10/07 06:40:10;;;;;;;80.63;77.72;;;13.70;80.40;;;;;;5045935;28;20060;-71
2022/10/07 06:42:36;;;;;;;78.15;75.35;;;13.60;80.40;;;;;;5029403;28;20041;-71
2022/10/07 06:45:02;;;;;;;75.55;72.85;;;13.60;80.40;;;;;;5032369;28;20101;-74
2022/10/07 06:47:27;;;;;;;70.05;67.55;;;13.50;80.40;;;;;;5032280;28;20037;-71
2022/10/07 06:49:53;;;;;;;64.20;61.90;;;13.50;80.40;;;;;;5049955;28;20029;-71
2022/10/07 06:52:19;;;;;;;58.45;56.35;;;13.50;80.40;;;;;;5049954;28;20028;-70
2022/10/07 06:54:45;;;;;;;56.90;54.80;;;13.50;80.40;;;;;;5049904;28;20038;-72
2022/10/07 06:57:10;;;;;;;60.33;58.13;;;13.40;80.30;;;;;;5015232;28;20522;-72
2022/10/07 06:59:36;;;;;;;58.20;56.10;;;13.40;80.40;;;;;;5031774;28;20025;-71
2022/10/07 07:02:02;;;;;;;56.58;54.53;;;13.40;80.40;;;;;;5031153;28;20049;-72
2022/10/07 07:04:27;;;;;;;56.65;54.55;;;13.30;80.30;;;;;;5031571;28;20084;-72
2022/10/07 07:06:53;;;;;;;60.38;58.17;;;13.30;80.30;;;;;;5049432;28;20043;-72
2022/10/07 07:09:21;;;;;;;53.00;51.10;;;13.30;80.30;;;;;;5031742;28;20020;-72
2022/10/07 07:11:47;;;;;;;55.95;53.95;;;13.30;80.30;;;;;;5032123;28;20394;-72
2022/10/07 07:14:13;;;;;;;55.15;53.15;;;13.30;80.30;;;;;;5031685;28;20029;-72
2022/10/07 07:16:39;;;;;;;54.55;52.55;;;13.30;80.30;;;;;;5031685;28;20039;-72
2022/10/07 07:19:07;;;;;;;;;;;13.30;80.30;;;;;;5032011;28;20324;-71
2022/10/07 07:21:34;;;;;;;52.47;50.58;;;13.30;80.30;;;;;;5049570;28;20256;-71
2022/10/07 07:24:00;;;;;;;53.88;51.88;;;13.30;80.30;;;;;;5049169;28;20034;-72
2022/10/07 07:26:27;;;;;;;54.20;52.20;;;13.30;80.30;;;;;;5049301;28;20284;-72
2022/10/07 07:29:03;;;;;;;55.88;53.85;;;13.40;80.40;;;;;;5031259;28;20025;-72
2022/10/07 07:31:31;;;;;;;54.65;52.65;;;13.40;80.40;;;;;;5049233;28;20086;-72
2022/10/07 07:34:00;;;;;;;53.25;51.25;;;13.50;80.50;;;;;;5048923;28;20429;-72
2022/10/07 07:36:28;;;;;;;51.17;49.28;;;13.50;80.60;;;;;;5049252;28;20032;-71
2022/10/07 07:39:09;;;;;;;49.35;47.55;;;13.70;80.50;;;;;;5030859;28;20541;-72
2022/10/07 07:41:39;;;;;;;52.30;50.40;;;13.80;80.50;;;;;;5048988;28;20083;-72
2022/10/07 07:44:09;;;;;;;55.20;53.17;;;13.80;80.30;;;;;;5030176;28;20119;-72
2022/10/07 07:46:41;;;;;;;56.22;54.13;;;13.80;80.20;;;;;;5048710;28;20053;-72
2022/10/07 07:49:11;;;;;;;59.00;56.80;;;13.90;80.20;;;;;;5048704;28;20028;-72
2022/10/07 07:51:38;;;;;;;57.65;55.55;;;13.90;80.20;;;;;;5048639;28;20043;-72
2022/10/07 07:54:05;;;;;;;58.03;55.92;;;13.90;80.70;;;;;;5047674;28;20025;-73
2022/10/07 07:56:31;;;;;;;59.95;57.75;;;13.90;80.30;;;;;;5030595;28;20075;-72
2022/10/07 07:58:58;;;;;;;58.72;56.53;;;14.00;80.30;;;;;;5013898;28;20132;-72
2022/10/07 08:01:24;;;;;;;60.90;58.67;;;14.00;80.30;;;;;;5030269;28;20029;-70
2022/10/07 08:03:51;;;;;;;56.25;54.15;;;14.00;80.30;;;;;;5045113;28;20429;-71
2022/10/07 08:06:19;;;;;;;58.97;56.78;;;14.00;80.30;;;;;;5034042;28;20033;-71
2022/10/07 08:08:46;;;;;;;59.50;57.30;;;14.10;80.40;;;;;;5037521;28;20017;-71
2022/10/07 08:11:18;;;;;;;58.65;56.45;;;14.10;80.40;;;;;;5020974;28;20112;-71
2022/10/07 08:13:45;;;;;;;59.88;57.67;;;14.10;80.30;;;;;;5037555;28;20053;-71
2022/10/07 08:16:14;;;;;;;59.83;57.63;;;14.20;80.40;;;;;;5047888;28;20025;-71
2022/10/07 08:18:41;;;;;;;60.78;58.58;;;14.20;80.30;;;;;;5036526;28;20029;-71
2022/10/07 08:21:08;;;;;;;59.58;57.38;;;14.20;80.30;;;;;;5003785;28;20033;-71
2022/10/07 08:23:38;;;;;;;59.60;57.40;;;14.30;80.30;;;;;;5020135;28;20040;-72
2022/10/07 08:26:05;;;;;;;59.88;57.67;;;14.30;80.30;;;;;;5038074;28;20096;-71
2022/10/07 08:28:31;;;;;;;61.90;59.60;;;14.30;80.30;;;;;;5035833;28;20026;-71
2022/10/07 08:31:04;;;;;;;57.17;55.08;;;14.30;80.40;;;;;;5004213;28;20414;-72
2022/10/07 08:33:33;;;;;;;59.03;56.83;;;14.40;80.50;;;;;;5035546;28;20105;-72
2022/10/07 08:36:01;;;;;;;62.15;59.85;;;14.50;80.60;;;;;;5036407;28;20025;-72
2022/10/07 08:38:32;;;;;;;60.45;58.25;;;14.60;80.40;;;;;;5037261;28;20486;-71
2022/10/07 08:41:22;;;;;;;54.63;52.63;;;14.80;80.50;;;;;;5038375;28;20040;-72
2022/10/07 08:43:49;;;;;;;56.25;54.15;;;14.90;80.70;;;;;;5011946;28;20049;-72
2022/10/07 08:46:18;;;;;;;53.03;51.03;;;15.20;80.60;;;;;;5018356;28;20053;-71
2022/10/07 08:48:57;;;;;;;55.60;53.50;;;15.40;80.60;;;;;;5033919;28;20048;-70
2022/10/07 08:51:45;;;;;;;51.28;49.38;;;15.50;80.40;;;;;;5033340;28;20018;-71
2022/10/07 08:54:23;;;;;;;40.83;39.33;;;15.80;80.90;;;;;;5033657;28;20022;-71
2022/10/07 08:56:48;;;;;;;32.63;31.42;;;16.40;81.80;;;;;;5034860;28;20026;-71
2022/10/07 08:59:20;;;;;;;41.95;40.40;;;17.30;81.90;;;;;;5036316;28;20086;-71
2022/10/07 09:01:57;;;;;;;43.03;41.42;;;17.80;80.40;;;;;;5016047;28;20036;-71
2022/10/07 09:04:53;;;;;;;44.95;43.28;;;17.60;79.50;;;;;;5033306;28;20297;-70
2022/10/07 09:07:33;;;;;;;45.88;44.17;;;17.30;79.60;;;;;;5037014;28;20036;-70
2022/10/07 09:10:08;;;;;;;41.63;40.10;;;17.00;79.90;;;;;;5020212;28;20068;-71
2022/10/07 09:12:56;;;;;;;40.28;38.78;;;16.90;80.20;;;;;;5021158;28;20403;-70
2022/10/07 09:15:28;;;;;;;47.88;46.15;;;16.70;80.00;;;;;;5037230;28;20371;-71
2022/10/07 09:18:01;;;;;;;42.38;40.78;;;16.50;80.40;;;;;;5038726;28;20501;-71
2022/10/07 09:20:36;;;;;;;37.85;35.88;;;16.30;80.00;;;;;;5020700;28;20040;-72
2022/10/07 09:23:04;;;;;;;26.80;25.80;;;16.20;81.20;;;;;;5040819;28;20020;-71
2022/10/07 09:25:30;;;;;;;18.13;17.40;;;16.80;82.60;;;;;;5044114;28;20022;-71
2022/10/07 09:27:57;;;;;;;10.25;9.75;;;18.00;83.40;;;;;;5027737;28;20020;-71
2022/10/07 09:30:26;;;;;;;8.27;7.88;;;19.30;83.50;;;;;;5033211;28;20047;-71
2022/10/07 09:32:54;;;;;;;3.08;2.88;;;20.70;82.80;;;;;;5012636;28;20383;-72
2022/10/07 09:35:25;;;;;;;3.95;3.65;;;21.80;82.10;;;;;;5026834;28;20045;-72
2022/10/07 09:38:00;;;;;;;2.63;2.42;;;22.80;81.30;;;;;;5036023;28;20021;-72
2022/10/07 09:40:34;;;;;;;0.30;0.30;;;23.40;80.60;;;;;;5028484;28;20498;-72
2022/10/07 09:43:08;;;;;;;0.10;0.10;;;24.20;80.70;;;;;;5044074;28;20358;-69
2022/10/07 09:45:35;;;;;;;0.10;0.10;;;25.00;81.00;;;;;;5043691;28;20021;-69
2022/10/07 09:48:06;;;;;;;0.00;0.00;;;25.50;80.70;;;;;;5044421;28;20027;-70
2022/10/07 09:50:40;;;;;;;0.00;0.00;;;25.80;80.40;;;;;;5043977;28;20123;-71
2022/10/07 09:53:22;;;;;;;0.05;0.00;;;25.80;79.80;;;;;;5043565;28;20621;-70
2022/10/07 09:55:49;;;;;;;0.00;0.00;;;25.10;78.30;;;;;;5041887;28;20466;-76
2022/10/07 09:58:26;;;;;;;0.00;0.00;;;24.20;78.40;;;;;;5035241;28;20029;-74
2022/10/07 10:01:00;;;;;;;0.00;0.00;;;23.20;78.50;;;;;;5029845;28;20063;-75
2022/10/07 10:03:34;;;;;;;0.00;0.00;;;22.10;78.80;;;;;;5033450;28;20442;-76
2022/10/07 10:06:09;;;;;;;0.00;0.00;;;21.40;80.00;;;;;;5034887;28;20087;-75
2022/10/07 10:08:38;;;;;;;0.00;0.00;;;21.10;80.50;;;;;;5030408;28;20021;-73
2022/10/07 10:11:29;;;;;;;0.10;0.10;;;20.80;80.20;;;;;;5019659;28;20021;-72
2022/10/07 10:13:54;;;;;;;0.00;0.00;;;20.40;80.60;;;;;;5037531;28;20017;-72
2022/10/07 10:16:23;;;;;;;;;;;20.20;80.80;;;;;;5017956;28;20626;-74
2022/10/07 10:19:01;;;;;;;0.00;0.00;;;20.10;81.10;;;;;;5040823;28;19915;-73
2022/10/07 10:21:34;;;;;;;0.10;0.10;;;20.10;81.10;;;;;;5040808;28;20113;-72
2022/10/07 10:24:14;;;;;;;2.08;0.38;;;20.10;80.80;;;;;;5039816;28;20036;-73
2022/10/07 10:26:55;;;;;;;0.20;0.20;;;20.20;80.80;;;;;;5038639;28;20022;-72
2022/10/07 10:29:52;;;;;;;0.00;0.00;;;20.10;80.40;;;;;;5020846;28;20025;-73
2022/10/07 10:32:32;;;;;;;0.00;0.00;;;20.70;82.10;;;;;;5039346;28;20045;-74
2022/10/07 10:35:23;;;;;;;0.00;0.00;;;21.90;82.40;;;;;;5039511;28;20036;-72
2022/10/07 10:38:00;;;;;;;0.10;0.10;;;22.90;82.50;;;;;;5041661;28;20049;-73
2022/10/07 10:40:46;;;;;;;0.00;0.00;;;23.90;81.80;;;;;;5040703;28;20036;-76
2022/10/07 10:43:19;;;;;;;0.00;0.00;;;24.60;80.60;;;;;;5041584;28;20098;-74
2022/10/07 10:45:57;;;;;;;0.00;0.00;;;24.40;79.80;;;;;;5040248;28;20039;-73
2022/10/07 10:48:30;;;;;;;0.00;0.00;;;24.60;80.70;;;;;;5039975;28;20018;-74
2022/10/07 10:51:09;;;;;;;0.00;0.00;;;24.70;80.50;;;;;;5018798;28;20068;-74
2022/10/07 10:53:50;;;;;;;0.00;0.00;;;24.60;79.90;;;;;;5036192;28;20009;-74
2022/10/07 10:56:21;;;;;;;0.10;0.10;;;23.70;79.10;;;;;;5017641;28;20029;-73
2022/10/07 10:59:15;;;;;;;0.00;0.00;;;22.70;79.00;;;;;;5022822;28;20021;-74
2022/10/07 11:01:43;;;;;;;0.00;0.00;;;21.70;79.40;;;;;;5041274;28;20048;-72
2022/10/07 11:04:50;;;;;;;0.00;0.00;;;21.00;80.50;;;;;;5039681;28;20033;-73
2022/10/07 11:07:26;;;;;;;0.00;0.00;;;20.60;81.40;;;;;;4991067;28;20084;-72
2022/10/07 11:10:03;;;;;;;0.00;0.00;;;20.90;82.00;;;;;;5035810;28;20064;-72
2022/10/07 11:12:39;;;;;;;0.00;0.00;;;21.20;81.80;;;;;;5042322;28;20048;-71
2022/10/07 11:15:20;;;;;;;0.00;0.00;;;21.20;81.10;;;;;;5047555;28;20012;-72
2022/10/07 11:17:49;;;;;;;0.00;0.00;;;21.30;81.90;;;;;;5047604;28;20025;-72
2022/10/07 11:20:19;;;;;;;0.00;0.00;;;21.40;81.10;;;;;;5044164;28;20096;-72
2022/10/07 11:23:10;;;;;;;0.00;0.00;;;21.60;81.40;;;;;;5033813;28;20021;-72
2022/10/07 11:25:43;;;;;;;0.00;0.00;;;21.50;80.10;;;;;;5022515;28;20129;-72
2022/10/07 11:28:25;;;;;;;0.00;0.00;;;20.90;79.60;;;;;;5034219;28;20094;-72
2022/10/07 11:31:10;;;;;;;0.00;0.00;;;20.20;79.70;;;;;;5037973;28;20035;-71
2022/10/07 11:33:56;;;;;;;0.00;0.00;;;19.80;79.90;;;;;;5017269;28;20032;-71
2022/10/07 11:36:38;;;;;;;0.10;0.10;;;19.60;81.40;;;;;;5040824;28;20082;-71
2022/10/07 11:39:04;;;;;;;0.00;0.00;;;20.00;82.30;;;;;;5002818;28;20085;-71
2022/10/07 11:41:35;;;;;;;;;;;20.50;82.70;;;;;;4998744;28;20034;-71
2022/10/07 11:44:07;;;;;;;0.10;0.10;;;21.30;83.10;;;;;;5000553;28;19949;-71
2022/10/07 11:46:35;;;;;;;0.00;0.00;;;22.40;83.40;;;;;;4996222;28;20101;-71
2022/10/07 11:49:22;;;;;;;0.00;0.00;;;23.20;82.60;;;;;;4996559;28;20046;-71
2022/10/07 11:52:25;;;;;;;0.00;0.00;;;23.80;82.00;;;;;;4996877;28;20019;-71
2022/10/07 11:55:23;;;;;;;0.00;0.00;;;24.10;81.20;;;;;;4994272;28;20144;-71
2022/10/07 11:57:54;;;;;;;0.00;0.00;;;24.30;81.30;;;;;;4988511;28;20486;-72
2022/10/07 12:00:32;;;;;;;0.00;0.00;;;24.60;81.40;;;;;;4994620;28;20018;-72
2022/10/07 12:03:30;;;;;;;0.00;0.00;;;24.50;80.10;;;;;;4992565;28;20488;-72
2022/10/07 12:06:05;;;;;;;0.00;0.00;;;23.70;79.40;;;;;;4998442;28;20036;-72
2022/10/07 12:08:38;;;;;;;0.00;0.00;;;23.10;79.50;;;;;;4999742;28;20022;-72
2022/10/07 12:11:15;;;;;;;0.00;0.00;;;22.80;80.70;;;;;;4992127;28;20030;-72
2022/10/07 12:13:42;;;;;;;0.00;0.00;;;22.80;81.50;;;;;;4989020;28;20122;-72
2022/10/07 12:16:30;;;;;;;0.00;0.00;;;23.00;82.10;;;;;;4995565;28;20074;-70
2022/10/07 12:19:10;;;;;;;0.00;0.00;;;23.20;81.70;;;;;;4993545;28;20028;-72
2022/10/07 12:22:07;;;;;;;0.00;0.00;;;23.40;81.80;;;;;;4998798;28;20096;-72
2022/10/07 12:24:35;;;;;;;0.00;0.00;;;23.50;81.40;;;;;;5000265;28;20109;-72
2022/10/07 12:27:14;;;;;;;0.00;0.00;;;23.20;80.50;;;;;;4994013;28;20060;-73
2022/10/07 12:29:49;;;;;;;0.00;0.00;;;23.00;81.10;;;;;;4979479;28;20060;-73
2022/10/07 12:32:55;;;;;;;0.00;0.00;;;23.20;81.60;;;;;;4971926;28;20027;-74
2022/10/07 12:35:33;;;;;;;0.00;0.00;;;23.10;80.10;;;;;;4969742;28;20073;-74
2022/10/07 12:38:27;;;;;;;0.00;0.00;;;22.40;78.90;;;;;;4970782;28;20026;-75
2022/10/07 12:41:02;;;;;;;0.00;0.00;;;21.50;78.90;;;;;;5008479;28;20037;-73
2022/10/07 12:43:46;;;;;;;0.00;0.00;;;20.80;79.30;;;;;;4990895;28;20034;-73
2022/10/07 12:46:17;;;;;;;0.00;0.00;;;20.30;80.10;;;;;;4990299;28;20373;-70
2022/10/07 12:49:12;;;;;;;0.00;0.00;;;20.40;82.00;;;;;;5008526;28;20451;-75
2022/10/07 12:51:39;;;;;;;0.00;0.00;;;21.00;82.50;;;;;;5007772;28;20034;-73
2022/10/07 12:54:19;;;;;;;0.20;0.05;;;21.60;82.20;;;;;;5008672;28;20022;-73
2022/10/07 12:56:46;;;;;;;0.00;0.00;;;22.00;81.70;;;;;;5029810;28;20523;-72
2022/10/07 13:02:33;;;;;;;0.00;0.00;;;22.40;81.50;;;;;;5047754;28;20176;-71
2022/10/07 13:05:39;;;;;;;0.00;0.00;;;21.90;80.10;;;;;;5041902;28;20394;-73
2022/10/07 13:08:20;;;;;;;0.00;0.00;;;21.10;79.50;;;;;;5032882;28;20025;-77
2022/10/07 13:11:15;;;;;;;0.00;0.00;;;20.30;79.50;;;;;;5034079;28;20486;-73